createdAt,value
2023-04-22T00:01:15.687Z,99745.69
2023-04-22T00:03:45.105Z,99745.69
2023-04-22T00:06:13.864Z,99748.97
2023-04-22T00:08:42.218Z,99755.06
2023-04-22T00:11:10.361Z,99758.50
2023-04-22T00:13:39.217Z,99764.56
2023-04-22T00:16:08.195Z,99764.97
2023-04-22T00:18:36.620Z,99773.50
2023-04-22T00:21:07.950Z,99763.13
2023-04-22T00:23:35.807Z,99768.75
2023-04-22T00:26:04.174Z,99761.56
2023-04-22T00:28:32.742Z,99760.56
2023-04-22T00:31:03.820Z,99763.88
2023-04-22T00:33:33.014Z,99760.25
2023-04-22T00:36:00.916Z,99770.00
2023-04-22T00:38:29.194Z,99759.41
2023-04-22T00:40:59.343Z,99764.25
2023-04-22T00:43:27.852Z,99768.91
2023-04-22T00:45:57.855Z,99776.94
2023-04-22T00:48:28.694Z,99772.94
2023-04-22T00:50:57.288Z,99785.22
2023-04-22T00:53:25.612Z,99780.97
2023-04-22T00:55:54.296Z,99777.22
2023-04-22T00:58:23.867Z,99780.84
2023-04-22T01:00:52.895Z,99778.81
2023-04-22T01:03:23.134Z,99781.56
2023-04-22T01:05:52.361Z,99781.22
2023-04-22T01:08:21.478Z,99780.50
2023-04-22T01:10:49.979Z,99778.81
2023-04-22T01:13:18.170Z,99780.88
2023-04-22T01:15:46.771Z,99784.00
2023-04-22T01:18:15.929Z,99788.28
2023-04-22T01:20:44.413Z,99788.28
2023-04-22T01:23:21.733Z,99780.25
2023-04-22T01:25:50.437Z,99769.16
2023-04-22T01:28:18.475Z,99785.22
2023-04-22T01:30:46.990Z,99786.81
2023-04-22T01:33:16.387Z,99784.75
2023-04-22T01:35:44.908Z,99769.91
2023-04-22T01:38:13.789Z,99782.19
2023-04-22T01:40:42.284Z,99781.59
2023-04-22T01:43:10.638Z,99788.16
2023-04-22T01:45:39.156Z,99777.44
2023-04-22T01:48:07.574Z,99776.69
2023-04-22T01:50:35.865Z,99768.03
2023-04-22T01:53:03.805Z,99778.41
2023-04-22T01:55:36.375Z,99778.28
2023-04-22T01:58:05.814Z,99779.50
2023-04-22T02:00:34.386Z,99781.06
2023-04-22T02:03:02.508Z,99774.88
2023-04-22T02:05:31.073Z,99772.69
2023-04-22T02:07:59.335Z,99780.72
2023-04-22T02:10:27.460Z,99778.91
2023-04-22T02:12:56.339Z,99774.50
2023-04-22T02:15:27.518Z,99777.44
2023-04-22T02:17:55.761Z,99776.47
2023-04-22T02:20:26.007Z,99777.56
2023-04-22T02:22:54.378Z,99786.69
2023-04-22T02:25:22.214Z,99780.47
2023-04-22T02:27:50.538Z,99786.53
2023-04-22T02:30:18.882Z,99781.69
2023-04-22T02:32:47.800Z,99783.75
2023-04-22T02:35:16.320Z,99783.00
2023-04-22T02:37:44.386Z,99782.16
2023-04-22T02:40:12.838Z,99787.13
2023-04-22T02:42:41.000Z,99797.75
2023-04-22T02:45:09.485Z,99791.88
2023-04-22T02:47:38.554Z,99792.63
2023-04-22T02:50:08.165Z,99792.16
2023-04-22T02:52:36.167Z,99788.72
2023-04-22T02:55:07.205Z,99797.88
2023-04-22T02:57:35.774Z,99799.00
2023-04-22T03:00:05.181Z,99807.13
2023-04-22T03:02:34.027Z,99812.38
2023-04-22T03:05:02.438Z,99807.03
2023-04-22T03:07:31.393Z,99806.97
2023-04-22T03:09:59.788Z,99808.81
2023-04-22T03:12:27.834Z,99814.56
2023-04-22T03:14:58.602Z,99822.03
2023-04-22T03:17:29.860Z,99823.00
2023-04-22T03:19:59.409Z,99825.31
2023-04-22T03:22:27.616Z,99821.53
2023-04-22T03:24:56.506Z,99822.63
2023-04-22T03:27:25.281Z,99833.59
2023-04-22T03:29:53.765Z,99832.38
2023-04-22T03:32:22.070Z,99834.44
2023-04-22T03:34:50.218Z,99842.75
2023-04-22T03:37:18.977Z,99849.09
2023-04-22T03:39:50.194Z,99838.84
2023-04-22T03:42:18.401Z,99847.28
2023-04-22T03:44:46.439Z,99842.38
2023-04-22T03:47:16.517Z,99858.00
2023-04-22T03:49:47.981Z,99854.69
2023-04-22T03:52:16.656Z,99856.66
2023-04-22T03:54:45.067Z,99853.75
2023-04-22T03:57:13.123Z,99862.97
2023-04-22T03:59:41.517Z,99865.56
2023-04-22T04:02:12.550Z,99867.28
2023-04-22T04:04:40.861Z,99873.97
2023-04-22T04:07:09.090Z,99862.88
2023-04-22T04:09:37.863Z,99875.91
2023-04-22T04:12:06.262Z,99877.22
2023-04-22T04:14:34.383Z,99882.00
2023-04-22T04:17:04.002Z,99883.13
2023-04-22T04:19:32.395Z,99883.00
2023-04-22T04:22:01.958Z,99875.19
2023-04-22T04:24:30.781Z,99883.34
2023-04-22T04:26:59.648Z,99890.56
2023-04-22T04:29:28.347Z,99885.19
2023-04-22T04:31:56.554Z,99889.69
2023-04-22T04:34:26.291Z,99894.31
2023-04-22T04:36:55.087Z,99893.91
2023-04-22T04:39:23.800Z,99897.59
2023-04-22T04:41:55.439Z,99894.63
2023-04-22T04:44:23.983Z,99896.59
2023-04-22T04:46:58.156Z,99897.53
2023-04-22T04:49:26.838Z,99905.50
2023-04-22T04:51:57.321Z,99906.34
2023-04-22T04:54:25.805Z,99904.88
2023-04-22T04:56:54.194Z,99911.34
2023-04-22T04:59:22.655Z,99916.38
2023-04-22T05:01:51.246Z,99915.53
2023-04-22T05:04:19.740Z,99922.22
2023-04-22T05:06:47.914Z,99914.25
2023-04-22T05:09:16.083Z,99921.06
2023-04-22T05:11:44.232Z,99919.06
2023-04-22T05:14:12.271Z,99922.69
2023-04-22T05:16:41.541Z,99909.25
2023-04-22T05:19:10.656Z,99916.03
2023-04-22T05:21:38.916Z,99924.94
2023-04-22T05:24:07.462Z,99930.44
2023-04-22T05:26:37.104Z,99926.44
2023-04-22T05:29:05.293Z,99927.31
2023-04-22T05:31:34.278Z,99932.13
2023-04-22T05:34:02.459Z,99929.78
2023-04-22T05:36:31.446Z,99933.50
2023-04-22T05:39:02.374Z,99932.06
2023-04-22T05:41:30.775Z,99939.84
2023-04-22T05:43:58.913Z,99926.25
2023-04-22T05:46:27.146Z,99935.06
2023-04-22T05:48:56.488Z,99934.22
2023-04-22T05:51:27.521Z,99938.03
2023-04-22T05:53:56.544Z,99940.03
2023-04-22T05:56:26.810Z,99935.66
2023-04-22T05:58:55.001Z,99941.06
2023-04-22T06:01:22.930Z,99934.47
2023-04-22T06:03:51.981Z,99940.28
2023-04-22T06:06:20.356Z,99948.06
2023-04-22T06:08:48.815Z,99941.38
2023-04-22T06:11:20.800Z,99951.66
2023-04-22T06:13:49.224Z,99944.94
2023-04-22T06:16:17.303Z,99955.25
2023-04-22T06:18:45.395Z,99941.94
2023-04-22T06:21:13.582Z,99945.13
2023-04-22T06:23:43.106Z,99940.81
2023-04-22T06:26:11.310Z,99944.91
2023-04-22T06:28:39.934Z,99948.41
2023-04-22T06:31:08.270Z,99953.63
2023-04-22T06:33:39.141Z,99953.84
2023-04-22T06:36:07.659Z,99953.59
2023-04-22T06:38:35.901Z,99975.66
2023-04-22T06:41:05.242Z,99967.28
2023-04-22T06:43:33.532Z,99975.91
2023-04-22T06:46:02.203Z,99980.78
2023-04-22T06:48:30.608Z,99979.66
2023-04-22T06:50:58.541Z,99977.50
2023-04-22T06:53:26.863Z,99985.72
2023-04-22T06:55:55.219Z,99978.44
2023-04-22T06:58:23.331Z,99983.53
2023-04-22T07:00:51.333Z,99980.09
2023-04-22T07:03:19.572Z,99983.41
2023-04-22T07:05:48.852Z,99988.47
2023-04-22T07:08:20.063Z,100003.47
2023-04-22T07:10:48.018Z,99982.44
2023-04-22T07:13:16.379Z,99992.50
2023-04-22T07:15:46.581Z,99993.38
2023-04-22T07:18:15.246Z,99988.25
2023-04-22T07:20:43.442Z,99994.22
2023-04-22T07:23:11.502Z,99996.06
2023-04-22T07:25:42.551Z,99996.63
2023-04-22T07:28:10.823Z,99995.94
2023-04-22T07:30:38.818Z,100001.13
2023-04-22T07:33:09.691Z,100003.78
2023-04-22T07:35:37.889Z,100003.75
2023-04-22T07:38:07.277Z,100017.81
2023-04-22T07:40:36.336Z,100005.75
2023-04-22T07:43:06.104Z,100012.53
2023-04-22T07:45:34.740Z,100013.22
2023-04-22T07:48:04.841Z,100023.16
2023-04-22T07:50:33.307Z,100030.97
2023-04-22T07:53:01.441Z,100028.72
2023-04-22T07:55:29.571Z,100027.59
2023-04-22T07:57:58.140Z,100034.56
2023-04-22T08:00:25.951Z,100037.94
2023-04-22T08:02:55.387Z,100031.91
2023-04-22T08:05:23.780Z,100036.28
2023-04-22T08:07:52.037Z,100035.28
2023-04-22T08:10:20.138Z,100033.31
2023-04-22T08:12:50.356Z,100048.75
2023-04-22T08:15:18.750Z,100050.66
2023-04-22T08:17:47.314Z,100048.75
2023-04-22T08:20:15.921Z,100062.41
2023-04-22T08:22:46.001Z,100049.84
2023-04-22T08:25:14.038Z,100059.50
2023-04-22T08:27:42.317Z,100049.56
2023-04-22T08:30:11.812Z,100050.13
2023-04-22T08:32:40.218Z,100057.31
2023-04-22T08:35:08.873Z,100049.09
2023-04-22T08:37:37.214Z,100050.88
2023-04-22T08:40:07.358Z,100050.38
2023-04-22T08:42:36.649Z,100042.41
2023-04-22T08:45:06.184Z,100051.88
2023-04-22T08:47:38.765Z,100058.69
2023-04-22T08:50:10.291Z,100062.13
2023-04-22T08:52:38.448Z,100064.91
2023-04-22T08:55:07.137Z,100054.69
2023-04-22T08:57:40.687Z,100065.56
2023-04-22T09:00:10.060Z,100061.63
2023-04-22T09:02:39.125Z,100062.22
2023-04-22T09:05:10.027Z,100070.03
2023-04-22T09:07:41.433Z,100069.75
2023-04-22T09:10:12.487Z,100071.97
2023-04-22T09:12:41.836Z,100074.09
2023-04-22T09:15:12.177Z,100068.94
2023-04-22T09:17:41.890Z,100064.50
2023-04-22T09:20:10.651Z,100087.13
2023-04-22T09:22:49.285Z,100081.72
2023-04-22T09:25:27.883Z,100093.75
2023-04-22T09:27:57.706Z,100083.09
2023-04-22T09:30:28.235Z,100070.41
2023-04-22T09:33:01.833Z,100077.50
2023-04-22T09:35:41.566Z,100095.13
2023-04-22T09:38:11.530Z,100096.94
2023-04-22T09:40:44.536Z,100090.59
2023-04-22T09:43:18.731Z,100097.59
2023-04-22T09:45:47.040Z,100099.28
2023-04-22T09:48:19.147Z,100092.16
2023-04-22T09:50:49.990Z,100099.72
2023-04-22T09:53:22.029Z,100096.97
2023-04-22T09:55:52.991Z,100098.72
2023-04-22T09:58:28.165Z,100104.34
2023-04-22T10:00:59.550Z,100099.59
2023-04-22T10:03:27.695Z,100105.94
2023-04-22T10:05:56.134Z,100107.31
2023-04-22T10:08:24.953Z,100108.34
2023-04-22T10:10:54.314Z,100108.69
2023-04-22T10:13:23.077Z,100107.53
2023-04-22T10:15:53.765Z,100106.25
2023-04-22T10:18:30.344Z,100110.16
2023-04-22T10:20:59.569Z,100107.56
2023-04-22T10:23:32.965Z,100113.03
2023-04-22T10:26:01.693Z,100116.19
2023-04-22T10:28:31.268Z,100120.63
2023-04-22T10:31:07.089Z,100124.06
2023-04-22T10:33:41.493Z,100123.16
2023-04-22T10:36:19.520Z,100124.50
2023-04-22T10:38:56.331Z,100128.41
2023-04-22T10:41:25.946Z,100129.56
2023-04-22T10:43:59.029Z,100126.50
2023-04-22T10:46:40.518Z,100128.91
2023-04-22T10:49:13.579Z,100130.09
2023-04-22T10:51:49.664Z,100126.03
2023-04-22T10:54:32.208Z,100120.16
2023-04-22T10:57:17.037Z,100134.56
2023-04-22T10:59:58.122Z,100109.22
2023-04-22T11:02:26.677Z,100116.88
2023-04-22T11:05:25.961Z,100113.53
2023-04-22T11:07:58.732Z,100112.56
2023-04-22T11:10:36.146Z,100118.66
2023-04-22T11:13:04.372Z,100114.28
2023-04-22T11:15:33.481Z,100113.13
2023-04-22T11:18:02.512Z,100121.72
2023-04-22T11:20:31.642Z,100111.75
2023-04-22T11:23:00.178Z,100124.13
2023-04-22T11:25:30.962Z,100137.84
2023-04-22T11:27:59.305Z,100141.19
2023-04-22T11:30:31.916Z,100149.81
2023-04-22T11:33:01.338Z,100139.28
2023-04-22T11:35:35.446Z,100134.16
2023-04-22T11:38:05.623Z,100143.72
2023-04-22T11:40:46.555Z,100144.84
2023-04-22T11:43:15.527Z,100132.84
2023-04-22T11:45:44.099Z,100137.13
2023-04-22T11:48:13.055Z,100135.00
2023-04-22T11:50:44.793Z,100134.91
2023-04-22T11:53:24.487Z,100139.13
2023-04-22T11:55:53.225Z,100131.66
2023-04-22T11:58:26.934Z,100131.91
2023-04-22T12:00:56.753Z,100122.50
2023-04-22T12:03:27.034Z,100128.41
2023-04-22T12:05:56.772Z,100124.63
2023-04-22T12:08:26.695Z,100122.34
2023-04-22T12:10:58.737Z,100127.28
2023-04-22T12:13:46.559Z,100119.44
2023-04-22T12:16:21.605Z,100126.72
2023-04-22T12:18:54.616Z,100123.44
2023-04-22T12:21:30.071Z,100123.13
2023-04-22T12:24:05.983Z,100121.44
2023-04-22T12:26:34.816Z,100129.03
2023-04-22T12:29:34.499Z,100125.91
2023-04-22T12:32:04.447Z,100129.13
2023-04-22T12:34:32.592Z,100125.66
2023-04-22T12:37:00.848Z,100120.53
2023-04-22T12:39:29.045Z,100134.16
2023-04-22T12:41:58.280Z,100126.34
2023-04-22T12:44:26.672Z,100121.38
2023-04-22T12:46:55.072Z,100128.41
2023-04-22T12:49:23.354Z,100131.84
2023-04-22T12:51:51.882Z,100130.09
2023-04-22T12:54:21.513Z,100129.50
2023-04-22T12:56:49.704Z,100131.59
2023-04-22T12:59:17.895Z,100139.09
2023-04-22T13:01:46.063Z,100134.25
2023-04-22T13:04:14.421Z,100143.75
2023-04-22T13:06:44.253Z,100142.09
2023-04-22T13:09:13.382Z,100151.56
2023-04-22T13:11:41.680Z,100159.78
2023-04-22T13:14:10.151Z,100163.78
2023-04-22T13:16:38.308Z,100169.25
2023-04-22T13:19:06.831Z,100167.81
2023-04-22T13:21:35.131Z,100169.38
2023-04-22T13:24:05.872Z,100165.91
2023-04-22T13:26:38.242Z,100159.59
2023-04-22T13:29:11.499Z,100163.09
2023-04-22T13:31:44.041Z,100173.25
2023-04-22T13:34:15.906Z,100180.91
2023-04-22T13:36:44.644Z,100191.84
2023-04-22T13:39:13.046Z,100202.28
2023-04-22T13:41:43.781Z,100203.19
2023-04-22T13:44:13.094Z,100220.25
2023-04-22T13:46:41.973Z,100214.69
2023-04-22T13:49:10.903Z,100212.63
2023-04-22T13:51:40.001Z,100199.19
2023-04-22T13:54:08.173Z,100213.50
2023-04-22T13:56:39.767Z,100207.88
2023-04-22T13:59:08.858Z,100219.25
2023-04-22T14:01:38.144Z,100219.34
2023-04-22T14:04:06.734Z,100206.63
2023-04-22T14:06:36.026Z,100207.69
2023-04-22T14:09:09.941Z,100207.38
2023-04-22T14:11:38.353Z,100219.00
2023-04-22T14:14:06.856Z,100206.69
2023-04-22T14:16:43.348Z,100225.03
2023-04-22T14:19:11.736Z,100212.63
2023-04-22T14:21:40.222Z,100217.00
2023-04-22T14:24:08.510Z,100216.16
2023-04-22T14:26:36.711Z,100216.03
2023-04-22T14:29:04.994Z,100212.00
2023-04-22T14:31:41.374Z,100212.41
2023-04-22T14:34:10.152Z,100217.09
2023-04-22T14:36:38.670Z,100217.00
2023-04-22T14:39:06.786Z,100224.72
2023-04-22T14:41:35.395Z,100225.94
2023-04-22T14:44:03.840Z,100227.84
2023-04-22T14:46:32.208Z,100229.84
2023-04-22T14:49:00.496Z,100234.53
2023-04-22T14:51:29.440Z,100236.38
2023-04-22T14:53:57.980Z,100239.75
2023-04-22T14:56:26.153Z,100240.97
2023-04-22T14:58:54.238Z,100242.63
2023-04-22T15:01:23.238Z,100245.03
2023-04-22T15:03:52.575Z,100245.44
2023-04-22T15:06:23.639Z,100246.09
2023-04-22T15:08:52.094Z,100240.69
2023-04-22T15:11:20.397Z,100238.09
2023-04-22T15:13:48.536Z,100239.41
2023-04-22T15:16:16.863Z,100250.44
2023-04-22T15:18:45.066Z,100244.94
2023-04-22T15:21:14.207Z,100249.66
2023-04-22T15:23:42.715Z,100239.56
2023-04-22T15:26:11.290Z,100234.59
2023-04-22T15:28:39.554Z,100239.53
2023-04-22T15:31:07.973Z,100250.66
2023-04-22T15:33:36.123Z,100254.38
2023-04-22T15:36:07.286Z,100258.28
2023-04-22T15:38:36.556Z,100254.19
2023-04-22T15:41:05.594Z,100257.91
2023-04-22T15:43:34.336Z,100267.09
2023-04-22T15:46:02.606Z,100259.41
2023-04-22T15:48:31.683Z,100268.56
2023-04-22T15:51:00.189Z,100257.81
2023-04-22T15:53:30.393Z,100250.84
2023-04-22T15:55:58.862Z,100258.19
2023-04-22T15:58:27.003Z,100271.81
2023-04-22T16:01:04.413Z,100265.50
2023-04-22T16:03:39.940Z,100263.56
2023-04-22T16:06:08.082Z,100265.06
2023-04-22T16:08:36.306Z,100271.66
2023-04-22T16:11:05.761Z,100271.53
2023-04-22T16:13:34.137Z,100274.69
2023-04-22T16:16:07.362Z,100283.75
2023-04-22T16:18:36.091Z,100289.53
2023-04-22T16:21:05.247Z,100292.84
2023-04-22T16:23:35.254Z,100305.44
2023-04-22T16:26:10.173Z,100300.09
2023-04-22T16:28:38.485Z,100301.69
2023-04-22T16:31:07.217Z,100301.28
2023-04-22T16:33:39.623Z,100308.25
2023-04-22T16:36:09.611Z,100306.78
2023-04-22T16:38:38.348Z,100309.34
2023-04-22T16:41:06.953Z,100312.16
2023-04-22T16:43:35.631Z,100315.66
2023-04-22T16:46:04.297Z,100322.72
2023-04-22T16:48:33.181Z,100322.19
2023-04-22T16:51:04.128Z,100322.66
2023-04-22T16:53:32.467Z,100325.81
2023-04-22T16:56:01.264Z,100331.75
2023-04-22T16:58:29.979Z,100333.81
2023-04-22T17:01:00.890Z,100341.25
2023-04-22T17:03:29.484Z,100354.03
2023-04-22T17:05:57.899Z,100349.78
2023-04-22T17:08:26.330Z,100354.50
2023-04-22T17:10:54.378Z,100372.56
2023-04-22T17:13:22.561Z,100370.41
2023-04-22T17:15:51.742Z,100378.41
2023-04-22T17:18:20.091Z,100375.66
2023-04-22T17:20:49.709Z,100376.16
2023-04-22T17:23:18.241Z,100380.78
2023-04-22T17:25:49.004Z,100383.59
2023-04-22T17:28:17.371Z,100388.59
2023-04-22T17:30:50.092Z,100392.38
2023-04-22T17:33:18.407Z,100384.81
2023-04-22T17:35:46.500Z,100396.38
2023-04-22T17:38:14.855Z,100382.94
2023-04-22T17:40:44.071Z,100386.25
2023-04-22T17:43:12.436Z,100392.59
2023-04-22T17:45:45.496Z,100404.94
2023-04-22T17:48:13.536Z,100396.69
2023-04-22T17:50:43.784Z,100399.38
2023-04-22T17:53:13.643Z,100392.38
2023-04-22T17:55:48.128Z,100401.53
2023-04-22T17:58:16.618Z,100404.72
2023-04-22T18:00:45.910Z,100396.72
2023-04-22T18:03:14.719Z,100401.91
2023-04-22T18:05:47.211Z,100397.09
2023-04-22T18:08:15.455Z,100385.22
2023-04-22T18:10:43.787Z,100392.75
2023-04-22T18:13:12.152Z,100388.44
2023-04-22T18:15:40.521Z,100397.81
2023-04-22T18:18:08.721Z,100394.81
2023-04-22T18:20:37.245Z,100394.19
2023-04-22T18:23:05.617Z,100394.31
2023-04-22T18:25:35.921Z,100398.16
2023-04-22T18:28:04.431Z,100405.78
2023-04-22T18:30:32.870Z,100398.19
2023-04-22T18:33:04.489Z,100403.88
2023-04-22T18:35:34.008Z,100402.69
2023-04-22T18:38:02.133Z,100408.38
2023-04-22T18:40:30.554Z,100398.94
2023-04-22T18:42:59.075Z,100392.19
2023-04-22T18:45:27.084Z,100396.03
2023-04-22T18:47:57.671Z,100393.56
2023-04-22T18:50:25.949Z,100401.72
2023-04-22T18:52:54.178Z,100402.13
2023-04-22T18:55:22.152Z,100400.94
2023-04-22T18:57:50.168Z,100410.38
2023-04-22T19:00:23.987Z,100411.44
2023-04-22T19:02:53.557Z,100408.34
2023-04-22T19:05:50.459Z,100415.72
2023-04-22T19:08:18.491Z,100425.75
2023-04-22T19:10:48.165Z,100418.78
2023-04-22T19:13:28.500Z,100421.25
2023-04-22T19:15:58.831Z,100420.59
2023-04-22T19:18:27.273Z,100417.78
2023-04-22T19:20:57.506Z,100416.84
2023-04-22T19:23:26.224Z,100412.66
2023-04-22T19:25:54.542Z,100413.84
2023-04-22T19:28:26.600Z,100418.41
2023-04-22T19:30:55.826Z,100414.16
2023-04-22T19:33:24.006Z,100410.63
2023-04-22T19:35:52.094Z,100409.72
2023-04-22T19:38:22.604Z,100415.00
2023-04-22T19:40:51.365Z,100423.22
2023-04-22T19:43:22.771Z,100426.97
2023-04-22T19:45:51.231Z,100429.63
2023-04-22T19:48:20.691Z,100428.16
2023-04-22T19:50:49.550Z,100429.09
2023-04-22T19:53:19.056Z,100435.63
2023-04-22T19:55:47.613Z,100432.38
2023-04-22T19:58:17.167Z,100433.53
2023-04-22T20:00:48.542Z,100440.06
2023-04-22T20:03:17.068Z,100440.47
2023-04-22T20:05:45.625Z,100438.66
2023-04-22T20:08:16.277Z,100430.91
2023-04-22T20:10:46.317Z,100447.66
2023-04-22T20:13:14.698Z,100444.50
2023-04-22T20:15:43.233Z,100445.53
2023-04-22T20:18:11.738Z,100449.19
2023-04-22T20:20:48.484Z,100452.72
2023-04-22T20:23:19.068Z,100460.56
2023-04-22T20:25:50.321Z,100459.16
2023-04-22T20:28:19.297Z,100462.97
2023-04-22T20:30:48.248Z,100457.81
2023-04-22T20:33:18.418Z,100455.25
2023-04-22T20:35:49.961Z,100449.22
2023-04-22T20:38:19.797Z,100461.09
2023-04-22T20:40:48.389Z,100458.41
2023-04-22T20:43:16.870Z,100454.94
2023-04-22T20:45:44.861Z,100453.44
2023-04-22T20:48:16.061Z,100448.75
2023-04-22T20:50:47.707Z,100444.81
2023-04-22T20:53:16.036Z,100447.06
2023-04-22T20:55:44.560Z,100448.81
2023-04-22T20:58:12.998Z,100444.19
2023-04-22T21:00:41.900Z,100453.09
2023-04-22T21:03:10.577Z,100455.69
2023-04-22T21:05:43.913Z,100454.78
2023-04-22T21:08:21.934Z,100461.59
2023-04-22T21:10:51.186Z,100462.34
2023-04-22T21:13:24.821Z,100460.63
2023-04-22T21:15:59.944Z,100472.97
2023-04-22T21:18:30.174Z,100463.78
2023-04-22T21:21:03.442Z,100468.34
2023-04-22T21:23:34.190Z,100461.84
2023-04-22T21:26:04.465Z,100476.28
2023-04-22T21:28:33.441Z,100466.63
2023-04-22T21:31:02.031Z,100453.56
2023-04-22T21:33:33.341Z,100459.56
2023-04-22T21:36:01.620Z,100467.69
2023-04-22T21:38:30.162Z,100470.38
2023-04-22T21:40:58.336Z,100474.38
2023-04-22T21:43:26.621Z,100468.72
2023-04-22T21:45:55.492Z,100473.75
2023-04-22T21:48:23.749Z,100469.94
2023-04-22T21:50:52.208Z,100469.31
2023-04-22T21:53:21.044Z,100477.81
2023-04-22T21:55:49.065Z,100479.34
2023-04-22T21:58:17.264Z,100477.34
2023-04-22T22:00:45.654Z,100481.44
2023-04-22T22:03:15.229Z,100474.25
2023-04-22T22:05:44.013Z,100480.06
2023-04-22T22:08:14.370Z,100475.25
2023-04-22T22:10:43.635Z,100480.41
2023-04-22T22:13:11.668Z,100480.59
2023-04-22T22:15:40.113Z,100488.91
2023-04-22T22:18:08.160Z,100483.47
2023-04-22T22:20:37.161Z,100481.41
2023-04-22T22:23:05.485Z,100482.81
2023-04-22T22:25:33.753Z,100483.47
2023-04-22T22:28:05.141Z,100487.06
2023-04-22T22:30:33.215Z,100484.50
2023-04-22T22:33:01.316Z,100483.13
2023-04-22T22:35:29.813Z,100488.56
2023-04-22T22:37:57.931Z,100487.50
2023-04-22T22:40:26.045Z,100488.25
2023-04-22T22:42:54.806Z,100488.03
2023-04-22T22:45:25.403Z,100493.53
2023-04-22T22:47:56.835Z,100492.97
2023-04-22T22:50:25.318Z,100496.28
2023-04-22T22:52:53.978Z,100497.19
2023-04-22T22:55:22.069Z,100508.75
2023-04-22T22:57:50.330Z,100505.31
2023-04-22T23:00:18.949Z,100502.63
2023-04-22T23:02:47.721Z,100508.84
2023-04-22T23:05:15.678Z,100505.63
2023-04-22T23:07:46.555Z,100508.50
2023-04-22T23:10:14.782Z,100504.41
2023-04-22T23:12:43.288Z,100502.03
2023-04-22T23:15:12.107Z,100504.84
2023-04-22T23:17:40.672Z,100507.78
2023-04-22T23:20:12.566Z,100498.47
2023-04-22T23:22:41.287Z,100495.31
2023-04-22T23:25:10.430Z,100506.44
2023-04-22T23:27:39.164Z,100502.13
2023-04-22T23:30:08.170Z,100509.97
2023-04-22T23:32:40.154Z,100501.63
2023-04-22T23:35:09.408Z,100503.53
2023-04-22T23:37:38.554Z,100508.88
2023-04-22T23:40:07.651Z,100502.59
2023-04-22T23:42:37.817Z,100510.16
2023-04-22T23:45:06.316Z,100499.88
2023-04-22T23:47:46.834Z,100505.47
2023-04-22T23:50:16.541Z,100515.59
2023-04-22T23:52:45.400Z,100518.41
2023-04-22T23:55:17.394Z,100522.38
2023-04-22T23:57:45.844Z,100531.81
